Aeroporto :
LOGIN :

Iscrizione | Disclaimer

   EN    FR    IT 

 










Sommario :    VFR   VFR Marginale   IFR   IFR Intensivo   IFR Molto Intensivo
Visibilità : 
Base nubi : 
>= 8 km
>= 3000ft
5 / 8 km
1000 / 3000 ft
1500m / 5 km
500 / 1000 ft
800 / 1500m
200 / 500 ft
< 800m
< 200 ft
Simboli :   Temporali  Nebbia  Neve Forte  Precipitazioni Forti  Vento > 20 kt
SIGMETs :   Varie  Temporali  Ghiacco  Turbolenza  Onda orograficha  Ceneri Vulcaniche







- Altitudine del aeroporto : 374 ft
- Codice IATA : LIS


LPPT - Lisboa Portela

ULTIMO METAR :
  • 161530Z 35010KT 320V020 9999 SCT032 22/14 Q1016

METARs OBSOLETI :
  • 161500Z 01009KT 340V060 9999 BKN032 22/14 Q1016
  • 161430Z 36010KT 330V040 9999 SCT028 22/14 Q1016
  • 161400Z 35010KT 9999 SCT027 22/14 Q1016
  • 161330Z 35007KT 310V040 9999 SCT028 21/14 Q1016
  • 161300Z 36008KT 9999 SCT028 21/14 Q1016

TAF TAF LPPT
Valido dal 16 a 12 ore il 17 a 18 ore UTC


161100Z 1612/1718 05008KT 9999 SCT025
BECMG 1614/1617 33008KT FEW035
BECMG 1700/1702 VRB03KT FEW012
PROB30
TEMPO 1704/1708 3000 BR SCT003
BECMG 1709/1711 33008KT FEW030
BECMG 1713/1715 30010KT BKN020
TEMPO 1715/1718 3000 DZRA SCT004 BKN008
Nessun NOTAM noto per questo aeroporto.



MetMap, La meteo Aeronautica in un colpo d'occhio ! - Copyright ORBIFLY Dicembre 2007 - Disclaimer

ORBIFLY MET'MAP TEAM :

Programmazione e sviluppo : Alexandra Zaïnal
Concezione e sviluppo : Baudouin d'Aumeries
Co-Programmazione e sviluppo : Marc-Olivier Méhu
Supporto tecnico e logistico : Manuel Goepfert
Aiuto per la traduzione : Arnaldo La Scala

Contatto : metmap@orbifly.com




FONTI E CREDITI :

   NOAA